Latest Weather Observations for Coolangatta

IDQ60801

Issued at 9:02 am EST Tuesday 9 February 2016 (issued every 30 minutes, with the page automatically refreshed every 10 minutes)

About weather observations | Map of weather stations | Latest weather observations for QLD | Other Formats
Station Details ID: 040717 Name: COOLANGATTA Lat: -28.17 Lon: 153.51 Height: 4.0 m
Data from the previous 72 hours. | See also: Recent months at Coolangatta
Date/Time
EST
Temp
°C
App
Temp
°C
Dew
Point
Rel
Hum
%
Delta-T
°C
Wind Press
QNH
hPa
Press
MSL
hPa
Rain
since 9 am
mm
Dir
 
Spd
km/h
Gust
km/h
Spd
kts
Gust
kts
09/09:00am 26.1 24.3 19.5 67 4.3 S 28 41 15 22 1016.0 1015.9 0.0
09/08:30am 25.2 24.2 18.9 68 4.0 S 22 33 12 18 1015.9 1015.8 0.0
09/08:00am 24.2 23.2 17.9 68 3.9 SSE 20 30 11 16 1015.9 1015.8 0.0
09/07:30am 24.4 23.5 18.1 68 4.0 S 20 32 11 17 1015.8 1015.7 0.0
09/07:00am 23.7 23.7 18.1 71 3.5 SSW 15 24 8 13 1015.5 1015.4 0.0
09/06:30am 22.6 22.9 17.9 75 2.9 SSW 13 20 7 11 1015.2 1015.1 0.0
09/06:00am 22.2 22.4 17.6 75 2.8 SSW 13 22 7 12 1014.8 1014.7 0.0
09/05:30am 22.2 22.0 17.6 75 2.8 SSW 15 20 8 11 1014.4 1014.3 0.0
09/05:00am 22.5 21.8 17.4 73 3.1 S 17 24 9 13 1014.1 1014.0 0.0
09/04:30am 22.4 21.7 17.3 73 3.1 SSW 17 24 9 13 1013.8 1013.7 0.0
09/04:00am 22.3 21.5 17.2 73 3.1 SSW 17 20 9 11 1013.7 1013.6 0.0
09/03:30am 22.9 22.3 16.7 68 3.8 SSW 15 20 8 11 1013.7 1013.6 0.0
09/03:00am 22.6 22.3 16.4 68 3.8 SSW 13 22 7 12 1013.7 1013.6 0.0
09/02:30am 23.1 22.1 16.6 67 4.0 SSW 17 26 9 14 1013.7 1013.6 0.0
09/02:00am 23.0 22.1 16.8 68 3.8 SSW 17 24 9 13 1013.8 1013.7 0.0
09/01:30am 22.9 22.1 17.1 70 3.6 SSW 17 26 9 14 1014.0 1013.9 0.0
09/01:00am 23.1 22.2 16.9 68 3.8 SSW 17 26 9 14 1014.3 1014.2 0.0
09/12:30am 23.1 22.4 17.3 70 3.6 SSW 17 24 9 13 1014.5 1014.4 0.0
09/12:00am 22.9 21.7 17.1 70 3.6 SSW 19 28 10 15 1014.9 1014.8 0.0
 
Date/Time
EST
Temp
°C
App
Temp
°C
Dew
Point
Rel
Hum
%
Delta-T
°C
Wind Press
QNH
hPa
Press
MSL
hPa
Rain
since 9 am
mm
Dir
 
Spd
km/h
Gust
km/h
Spd
kts
Gust
kts
08/11:30pm 22.9 22.6 17.4 71 3.4 SSW 15 24 8 13 1015.2 1015.1 0.0
08/11:00pm 23.1 22.5 17.6 71 3.4 SSW 17 24 9 13 1015.5 1015.4 0.0
08/10:30pm 23.1 22.3 18.0 73 3.2 S 19 28 10 15 1015.5 1015.4 0.0
08/10:00pm 23.2 22.3 18.1 73 3.2 S 20 30 11 16 1015.5 1015.4 0.0
08/09:30pm 22.9 22.2 18.2 75 2.9 S 19 26 10 14 1015.7 1015.6 0.0
08/09:00pm 23.1 22.3 18.0 73 3.2 SSW 19 26 10 14 1015.6 1015.5 0.0
08/08:30pm 23.3 22.3 18.0 72 3.3 SSW 20 30 11 16 1015.5 1015.4 0.0
08/08:00pm 23.3 22.4 17.7 71 3.5 SSW 19 24 10 13 1015.2 1015.1 0.0
08/07:30pm 23.6 23.5 17.8 70 3.6 SSW 15 20 8 11 1014.8 1014.7 0.0
08/07:00pm 23.8 23.3 17.8 69 3.7 S 17 26 9 14 1014.5 1014.4 0.0
08/06:30pm 24.4 22.1 17.6 66 4.2 S 26 39 14 21 1014.0 1013.9 0.0
08/06:00pm 24.8 22.1 17.5 64 4.6 SSE 28 35 15 19 1013.6 1013.5 0.0
08/05:30pm 25.8 22.8 17.7 61 5.1 SSE 30 39 16 21 1013.2 1013.1 0.0
08/05:00pm 26.6 24.8 18.7 62 5.0 SSE 26 37 14 20 1013.0 1012.9 0.0
08/04:45pm 26.4 23.3 18.3 61 5.1 SSE 32 50 17 27 1013.1 1013.0 0.0
08/04:30pm 27.0 24.6 18.3 59 5.5 SSE 28 43 15 23 1013.2 1013.1 0.0
08/04:00pm 27.1 24.1 18.7 60 5.4 SSE 32 46 17 25 1013.1 1013.0 0.0
08/03:48pm 27.1 23.9 18.1 58 5.7 SSE 32 50 17 27 1013.1 1013.0 0.0
08/03:30pm 27.6 24.1 18.0 55 6.1 SSE 33 46 18 25 1013.1 1013.0 0.0
08/03:00pm 28.1 24.9 18.5 56 6.1 SE 33 44 18 24 1013.3 1013.2 0.0
08/02:30pm 28.4 25.2 18.2 54 6.5 SE 32 43 17 23 1013.3 1013.2 0.0
08/02:00pm 27.9 24.4 18.0 55 6.3 SE 33 46 18 25 1013.6 1013.5 0.0
08/01:30pm 27.8 24.3 17.9 54 6.3 SE 33 46 18 25 1013.8 1013.7 0.0
08/01:00pm 28.7 25.9 17.2 49 7.2 SSE 28 39 15 21 1014.0 1013.9 0.0
08/12:30pm 28.3 26.2 17.2 51 7.0 SSE 24 35 13 19 1014.2 1014.1 0.0
08/12:00pm 26.3 24.9 17.9 60 5.3 S 22 33 12 18 1014.7 1014.6 0.0
08/11:30am 27.7 24.6 17.5 53 6.4 SSE 30 41 16 22 1015.0 1014.9 0.0
08/11:23am 27.4 24.7 17.6 55 6.2 S 28 41 15 22 1015.0 1014.9 0.0
08/11:00am 26.2 26.4 18.6 63 4.8 SSW 15 22 8 12 1015.3 1015.2 0.0
08/10:30am 25.5 26.1 18.7 66 4.3 SSW 13 20 7 11 1015.6 1015.5 0.0
08/10:00am 24.7 23.8 17.7 65 4.4 SSW 19 26 10 14 1015.8 1015.7 0.0
08/09:30am 24.9 23.7 17.4 63 4.7 SSW 20 32 11 17 1015.8 1015.7 0.0
08/09:00am 24.8 24.5 17.3 63 4.7 SSW 15 24 8 13 1015.6 1015.5 0.2
08/08:30am 24.5 23.3 17.0 63 4.6 SW 19 30 10 16 1015.7 1015.6 0.2
08/08:00am 24.1 24.1 17.1 65 4.3 SSW 13 20 7 11 1015.5 1015.4 0.2
08/07:30am 23.7 23.3 17.2 67 4.0 SSW 15 24 8 13 1015.2 1015.1 0.2
08/07:00am 22.6 21.7 16.9 70 3.5 SSW 17 26 9 14 1014.9 1014.8 0.2
08/06:30am 21.9 21.9 17.1 74 2.9 SSW 13 24 7 13 1014.8 1014.7 0.2
08/06:00am 20.9 20.3 16.7 77 2.5 SW 15 20 8 11 1014.5 1014.4 0.2
08/05:30am 20.2 20.4 16.8 81 2.1 SSW 11 17 6 9 1014.2 1014.1 0.2
08/05:00am 20.4 20.5 16.6 79 2.3 SSW 11 19 6 10 1014.2 1014.1 0.2
08/04:30am 20.5 20.7 16.7 79 2.3 SSW 11 19 6 10 1014.1 1014.0 0.2
08/04:00am 20.5 21.0 16.5 78 2.4 SSW 9 15 5 8 1014.1 1014.0 0.2
08/03:30am 21.1 20.8 16.5 75 2.8 SSW 13 19 7 10 1014.1 1014.0 0.2
08/03:00am 21.2 20.6 16.6 75 2.8 SSW 15 20 8 11 1013.9 1013.8 0.2
08/02:30am 21.2 20.5 16.4 74 2.9 SSW 15 20 8 11 1014.0 1013.9 0.2
08/02:00am 21.4 20.4 16.6 74 2.9 SSW 17 24 9 13 1014.0 1013.9 0.2
08/01:30am 21.4 20.8 16.6 74 2.9 SSW 15 22 8 12 1014.5 1014.4 0.2
08/01:00am 21.6 21.4 16.6 73 3.0 SSW 13 20 7 11 1014.8 1014.7 0.2
08/12:30am 21.8 20.8 16.5 72 3.2 SSW 17 22 9 12 1015.0 1014.9 0.2
08/12:00am 21.7 21.1 16.6 73 3.1 SSW 15 24 8 13 1015.4 1015.3 0.2
 
Date/Time
EST
Temp
°C
App
Temp
°C
Dew
Point
Rel
Hum
%
Delta-T
°C
Wind Press
QNH
hPa
Press
MSL
hPa
Rain
since 9 am
mm
Dir
 
Spd
km/h
Gust
km/h
Spd
kts
Gust
kts
07/11:30pm 21.6 21.4 16.8 74 2.9 SSW 13 24 7 13 1015.3 1015.2 0.2
07/11:00pm 21.5 21.3 16.7 74 2.9 SSW 13 20 7 11 1015.6 1015.5 0.2
07/10:30pm 21.7 21.5 16.6 73 3.1 SSW 13 20 7 11 1015.6 1015.5 0.2
07/10:00pm 22.0 21.4 16.7 72 3.2 SSW 15 19 8 10 1015.5 1015.4 0.2
07/09:30pm 22.1 21.9 16.6 71 3.3 SSW 13 19 7 10 1015.4 1015.3 0.2
07/09:00pm 22.2 22.0 16.7 71 3.3 SSW 13 17 7 9 1015.5 1015.4 0.2
07/08:30pm 22.6 22.1 16.9 70 3.5 SSW 15 20 8 11 1015.3 1015.2 0.2
07/08:00pm 22.7 22.6 16.9 70 3.6 SSW 13 19 7 10 1015.2 1015.1 0.2
07/07:30pm 23.1 22.2 16.9 68 3.8 SSW 17 24 9 13 1014.9 1014.8 0.2
07/07:00pm 23.3 22.9 17.1 68 3.8 S 15 22 8 12 1014.5 1014.4 0.2
07/06:30pm 23.8 23.2 17.5 68 3.9 S 17 30 9 16 1014.2 1014.1 0.2
07/06:00pm 24.4 22.4 17.4 65 4.4 S 24 32 13 17 1013.9 1013.8 0.2
07/05:30pm 25.3 23.6 17.2 61 5.0 SSE 22 33 12 18 1013.6 1013.5 0.2
07/05:00pm 25.5 24.3 17.4 61 5.1 S 20 30 11 16 1013.2 1013.1 0.2
07/04:30pm 26.0 22.9 16.5 55 5.9 SSE 28 39 15 21 1013.0 1012.9 0.2
07/04:00pm 25.7 22.5 16.3 56 5.8 SSE 28 41 15 22 1012.9 1012.8 0.2
07/03:30pm 26.1 22.8 16.1 54 6.1 S 28 37 15 20 1012.8 1012.7 0.2
07/03:00pm 25.8 22.4 17.7 61 5.1 SSE 32 43 17 23 1012.8 1012.7 0.2
07/02:30pm 25.2 22.4 17.4 62 4.9 SSE 28 46 15 25 1012.8 1012.7 0.2
07/02:00pm 25.9 23.6 17.5 59 5.3 S 26 37 14 20 1013.3 1013.2 0.2
07/01:30pm 25.2 24.2 18.9 68 4.0 S 22 33 12 18 1013.4 1013.3 0.2
07/01:00pm 24.6 24.7 19.2 72 3.5 S 17 28 9 15 1013.6 1013.5 0.2
07/12:30pm 23.0 22.7 19.6 81 2.2 SSW 20 28 11 15 1013.9 1013.8 0.2
07/12:00pm 24.1 22.7 19.6 76 2.9 SSW 26 43 14 23 1013.7 1013.6 0.2
07/11:30am 23.1 22.0 19.5 80 2.3 S 24 35 13 19 1013.9 1013.8 0.2
07/11:10am 22.5 22.4 20.0 86 1.6 SSW 20 30 11 16 1013.9 1013.8 0.2
07/11:00am 21.9 21.9 20.2 90 1.1 SSW 20 26 11 14 1014.1 1014.0 0.2
07/10:30am 22.2 21.2 19.6 85 1.7 SSW 24 37 13 20 1014.3 1014.2 0.2
07/10:28am 22.8 22.2 20.5 87 1.5 SSW 24 37 13 20 1014.3 1014.2 0.2
07/10:16am 23.1 22.7 20.1 83 1.9 SSW 22 37 12 20 1014.2 1014.1 0.2
07/10:00am 21.7 21.2 20.0 90 1.1 SSW 22 33 12 18 1014.5 1014.4 0.2
07/09:30am 21.8 21.6 19.7 88 1.3 SSW 20 32 11 17 1014.3 1014.2 0.0
07/09:00am 22.5 22.1 19.3 82 2.0 SSW 20 33 11 18 1014.1 1014.0 5.0
07/08:30am 22.6 22.3 19.6 83 1.9 SSW 20 28 11 15 1013.9 1013.8 5.0
07/08:00am 22.7 22.3 19.3 81 2.2 SSW 20 28 11 15 1013.7 1013.6 5.0
07/07:30am 21.8 22.0 19.4 86 1.5 S 17 22 9 12 1013.6 1013.5 5.0
07/07:00am 21.9 21.5 18.9 83 1.9 SSW 19 26 10 14 1013.5 1013.4 5.0
07/06:30am 21.6 21.2 18.8 84 1.8 S 19 28 10 15 1013.3 1013.2 5.0
07/06:00am 21.4 21.3 18.8 85 1.6 SSW 17 24 9 13 1013.0 1012.9 5.0
07/05:30am 21.3 20.7 18.9 86 1.5 SSW 20 33 11 18 1012.4 1012.3 5.0
07/05:00am 21.3 21.7 19.0 87 1.5 SSW 15 20 8 11 1012.3 1012.2 5.0
07/04:30am 21.2 21.4 19.3 89 1.2 SSW 17 22 9 12 1012.0 1011.9 5.0
07/04:00am 21.0 22.1 19.7 92 0.8 SSW 13 19 7 10 1011.8 1011.7 5.0
07/03:55am 21.0 22.5 19.8 93 0.8 SSW 11 17 6 9 1011.8 1011.7 5.0
07/03:35am 21.1 22.2 19.7 92 0.9 S 13 17 7 9 1011.8 1011.7 5.0
07/03:30am 21.2 22.7 19.8 92 0.9 S 11 15 6 8 1011.8 1011.7 4.6
07/03:20am 21.2 22.7 19.8 92 0.9 SSW 11 17 6 9 1011.8 1011.7 4.6
07/03:00am 21.3 22.5 19.9 92 0.9 S 13 24 7 13 1011.9 1011.8 4.4
07/02:43am 21.6 22.6 20.2 92 0.9 S 15 20 8 11 1011.9 1011.8 4.2
07/02:30am 21.7 22.2 20.0 90 1.1 S 17 22 9 12 1011.8 1011.7 4.0
07/02:00am 21.8 22.1 20.3 91 1.0 SSW 19 24 10 13 1011.6 1011.5 4.0
07/01:30am 21.8 22.9 20.4 92 0.9 SSW 15 20 8 11 1011.6 1011.5 4.0
07/01:00am 21.9 23.0 20.5 92 0.9 S 15 26 8 14 1011.4 1011.3 4.0
07/12:30am 22.1 22.5 20.7 92 0.9 S 19 24 10 13 1011.8 1011.7 4.0
07/12:00am 22.1 23.3 20.6 91 1.0 SSW 15 20 8 11 1012.4 1012.3 4.0
 
Date/Time
EST
Temp
°C
App
Temp
°C
Dew
Point
Rel
Hum
%
Delta-T
°C
Wind Press
QNH
hPa
Press
MSL
hPa
Rain
since 9 am
mm
Dir
 
Spd
km/h
Gust
km/h
Spd
kts
Gust
kts
06/11:30pm 22.2 23.8 20.7 91 1.0 SSW 13 17 7 9 1013.0 1012.9 3.4
06/11:00pm 22.1 24.0 20.6 91 1.0 SSW 11 15 6 8 1013.2 1013.1 3.4
06/10:30pm 22.2 23.3 20.5 90 1.1 S 15 28 8 15 1013.4 1013.3 3.4
06/10:04pm 22.3 24.3 20.8 91 1.0 S 11 17 6 9 1013.3 1013.2 3.4
06/10:00pm 22.3 24.3 20.8 91 1.0 S 11 15 6 8 1013.3 1013.2 3.4
06/09:47pm 22.4 24.4 20.7 90 1.1 SSW 11 19 6 10 1013.5 1013.4 3.4
06/09:34pm 22.5 24.9 20.8 90 1.1 S 9 13 5 7 1013.2 1013.1 2.6
06/09:30pm 22.5 24.5 20.8 90 1.1 S 11 15 6 8 1013.2 1013.1 2.6
06/09:15pm 22.9 24.8 20.6 87 1.5 SSW 11 15 6 8 1013.2 1013.1 1.8
06/09:00pm 22.8 24.7 20.5 87 1.5 SSW 11 17 6 9 1013.0 1012.9 1.2
06/08:30pm 23.0 24.5 20.5 86 1.6 SSW 13 19 7 10 1012.8 1012.7 1.2
06/08:00pm 22.9 24.4 20.6 87 1.5 SSW 13 20 7 11 1012.2 1012.1 1.2
06/07:30pm 22.9 24.4 20.6 87 1.5 S 13 24 7 13 1012.0 1011.9 1.2
06/07:00pm 22.9 24.1 20.6 87 1.5 S 15 22 8 12 1011.8 1011.7 1.2
06/06:30pm 23.6 24.3 20.5 83 2.0 SSE 17 24 9 13 1011.3 1011.2 1.0
06/06:00pm 23.1 22.4 20.2 84 1.9 SSE 24 35 13 19 1011.2 1011.1 1.0
06/05:30pm 24.2 24.5 20.7 81 2.3 SSE 20 30 11 16 1010.6 1010.5 1.0
06/05:00pm 24.3 24.9 21.0 82 2.2 SSE 19 28 10 15 1010.2 1010.1 1.0
06/04:30pm 24.2 23.8 20.9 82 2.2 SSE 24 37 13 20 1010.2 1010.1 1.0
06/04:00pm 24.2 24.8 21.3 84 1.9 SSE 20 39 11 21 1010.0 1009.9 1.0
06/03:30pm 24.5 23.7 21.6 84 1.9 SE 28 33 15 18 1010.1 1010.0 1.0
06/03:09pm 25.8 24.2 20.1 71 3.7 SE 28 46 15 25 1010.2 1010.1 0.6
06/03:00pm 27.0 27.3 21.5 72 3.7 SSE 22 33 12 18 1010.2 1010.1 0.6
06/02:30pm 25.5 23.8 21.4 78 2.7 SSE 32 44 17 24 1010.3 1010.2 0.6
06/02:13pm 25.4 25.8 22.5 84 1.9 SSE 24 35 13 19 1010.3 1010.2 0.6
06/02:00pm 23.9 22.8 21.8 88 1.4 SE 30 41 16 22 1010.4 1010.3 0.6
06/01:40pm 24.5 24.1 21.0 81 2.3 SSE 24 39 13 21 1010.4 1010.3 0.6
06/01:30pm 26.4 26.9 22.0 77 2.9 SSE 22 33 12 18 1010.6 1010.5 0.0
06/01:00pm 26.3 25.3 21.3 74 3.3 SE 28 46 15 25 1010.7 1010.6 0.0
06/12:54pm 26.0 24.1 21.0 74 3.3 SE 32 46 17 25 1010.7 1010.6 0.0
06/12:37pm 27.1 24.9 20.7 68 4.2 SSE 33 48 18 26 1010.7 1010.6 0.0
06/12:30pm 27.2 25.3 21.0 69 4.1 SSE 32 44 17 24 1010.7 1010.6 0.0
06/12:00pm 27.6 26.6 21.2 68 4.3 SE 28 41 15 22 1011.2 1011.1 0.0
06/11:30am 26.0 25.8 22.7 82 2.2 SSE 28 39 15 21 1011.4 1011.3 0.0
06/11:00am 25.1 25.7 22.8 87 1.6 SSE 24 41 13 22 1011.6 1011.5 0.0
06/10:47am 24.1 22.6 21.0 83 2.0 SSE 30 41 16 22 1011.6 1011.5 0.0
06/10:30am 25.8 24.9 20.6 73 3.4 S 26 39 14 21 1011.5 1011.4 0.0
06/10:00am 27.6 26.4 21.6 70 4.0 SE 30 43 16 23 1011.7 1011.6 0.0
06/09:30am 26.7 24.5 20.8 70 3.9 SE 33 43 18 23 1011.6 1011.5 0.0

Other Formats:

Comma delimited format used in spreadsheet applications
http://www.bom.gov.au/fwo/IDQ60801/IDQ60801.94592.axf

JavaScript Object Notation format (JSON) in row-major order
http://www.bom.gov.au/fwo/IDQ60801/IDQ60801.94592.json